createdAt,value
2018-06-27T00:00:52.083Z,99.90
2018-06-27T00:03:20.892Z,99.90
2018-06-27T00:05:49.669Z,99.90
2018-06-27T00:08:18.327Z,99.90
2018-06-27T00:10:47.045Z,99.90
2018-06-27T00:13:15.744Z,99.90
2018-06-27T00:15:44.792Z,99.90
2018-06-27T00:20:42.118Z,99.90
2018-06-27T00:23:10.885Z,99.90
2018-06-27T00:25:39.896Z,99.90
2018-06-27T00:28:08.929Z,99.90
2018-06-27T00:30:40.619Z,99.90
2018-06-27T00:33:09.299Z,99.90
2018-06-27T00:35:38.004Z,99.90
2018-06-27T00:38:18.281Z,99.90
2018-06-27T00:40:57.957Z,99.90
2018-06-27T00:43:30.136Z,99.90
2018-06-27T00:48:27.454Z,99.90
2018-06-27T00:50:56.350Z,99.90
2018-06-27T00:53:29.266Z,99.90
2018-06-27T00:55:58.004Z,99.90
2018-06-27T00:58:26.802Z,99.90
2018-06-27T01:00:55.568Z,99.90
2018-06-27T01:03:24.216Z,99.90
2018-06-27T01:05:53.594Z,99.90
2018-06-27T01:08:22.392Z,99.90
2018-06-27T01:10:51.109Z,99.90
2018-06-27T01:13:19.698Z,99.90
2018-06-27T01:15:48.390Z,99.90
2018-06-27T01:18:17.123Z,99.90
2018-06-27T01:20:45.840Z,99.90
2018-06-27T01:23:14.599Z,99.90
2018-06-27T01:25:43.496Z,99.90
2018-06-27T01:28:12.313Z,99.90
2018-06-27T01:33:09.389Z,99.90
2018-06-27T01:38:07.444Z,99.90
2018-06-27T01:40:37.481Z,99.90
2018-06-27T01:43:06.724Z,99.90
2018-06-27T01:45:35.777Z,99.90
2018-06-27T01:48:04.497Z,99.90
2018-06-27T01:57:50.005Z,99.90
2018-06-27T02:02:58.960Z,99.90
2018-06-27T02:05:28.937Z,99.90
2018-06-27T02:07:57.735Z,99.90
2018-06-27T02:10:26.493Z,99.90
2018-06-27T02:12:55.270Z,99.90
2018-06-27T02:15:24.088Z,99.90
2018-06-27T02:17:52.917Z,99.90
2018-06-27T02:20:21.763Z,99.90
2018-06-27T02:22:50.781Z,99.90
2018-06-27T02:25:19.578Z,99.90
2018-06-27T02:27:48.577Z,99.90
2018-06-27T02:30:18.535Z,99.90
2018-06-27T02:32:48.514Z,99.90
2018-06-27T02:35:17.168Z,99.90
2018-06-27T02:37:49.067Z,99.90
2018-06-27T02:42:46.342Z,99.90
2018-06-27T02:45:15.113Z,99.90
2018-06-27T02:50:12.074Z,99.90
2018-06-27T02:52:40.793Z,99.90
2018-06-27T02:55:09.682Z,99.90
2018-06-27T03:02:52.581Z,99.90
2018-06-27T03:05:30.179Z,99.90
2018-06-27T03:08:00.046Z,99.90
2018-06-27T03:10:40.339Z,99.90
2018-06-27T03:13:13.085Z,99.90
2018-06-27T03:22:52.778Z,99.90
2018-06-27T03:25:27.467Z,99.90
2018-06-27T03:36:42.178Z,99.90
2018-06-27T04:06:40.700Z,99.90
2018-06-27T04:43:23.013Z,99.90
2018-06-27T04:45:52.338Z,99.90
2018-06-27T04:48:54.673Z,99.90
2018-06-27T07:36:59.336Z,99.90
2018-06-27T16:07:38.770Z,73.30
2018-06-27T16:15:59.034Z,73.90
2018-06-27T16:19:12.227Z,74.50
2018-06-27T17:27:51.353Z,74.90
2018-06-27T17:41:41.514Z,76.00
2018-06-27T17:44:12.568Z,74.20
2018-06-27T18:00:27.154Z,73.70
2018-06-27T18:37:47.934Z,73.40
2018-06-27T19:16:24.365Z,77.80
2018-06-27T19:26:54.574Z,78.10
2018-06-27T19:29:32.296Z,78.30
2018-06-27T19:32:06.352Z,79.10
2018-06-27T19:34:39.914Z,78.70
2018-06-27T19:40:30.014Z,79.50
2018-06-27T19:43:02.382Z,80.30
2018-06-27T19:45:34.522Z,80.80
2018-06-27T19:48:03.746Z,80.50
2018-06-27T19:50:40.067Z,81.50
2018-06-27T19:54:03.127Z,81.00
2018-06-27T19:56:34.309Z,81.20
2018-06-27T19:59:04.596Z,81.10
2018-06-27T20:01:36.252Z,81.40
2018-06-27T20:04:07.093Z,81.30
